Lucas Ribeiro

Scout - Santos
14 Okt 2027
Donnerstag
Verarbeitung

Persönlichkeit

Anpassungsfähigkeit (9) Ehrgeiz (14) Kontroverse (7) Loyalität (18) Druck (18) Professionalität (11) Fairness (13) Temperament (1)

Profil

Trainerstil Demokratisch
Lizenz Kontinentale A
Entschlossenheit 10
Menschenführung 9
Motivation 11
Disziplin 14
Arbeitszufriedenheit
100%
Ermüdung
0%
Rolle Scout
Gehalt 68.8K p/W
Vertrag 14.03.2030

Leistung

Verhalten Gut
Trainingseffektivität
56%
Spielerentwicklung
60%
Verletzungsprävention
35%
Taktische Umsetzung
40%

Letzte Ereignisse

Nahm an einer Scouting-Besprechung teil 7T her
Nahm an einer Scouting-Besprechung teil 7T her
Nahm an einer Scouting-Besprechung teil 14T her
Nahm an einer Scouting-Besprechung teil 14T her
Nahm an einer Scouting-Besprechung teil 21T her
Nahm an einer Scouting-Besprechung teil 21T her
Nahm an einer Scouting-Besprechung teil 28T her
Nahm an einer Scouting-Besprechung teil 28T her

Aktuell beobachtet

100
Spieler Verein Status Fähigkeit Vertrauen Beobachtet Zuletzt beobachtet Letzte Stimme
Mats Wieffer Brighton Aktiv 150 / 152 40% 3 30.05.2027 -
Dara O'Shea Ipswich Town Aktiv 135 / 138 40% 1 30.05.2027 -
Kristoffer Lund Birmingham Aktiv 124 / 133 40% 1 30.05.2027 -
Nico González Newcastle United Aktiv 163 / 160 40% 2 29.05.2027 -
Milan van Ewijk Mansfield Town Aktiv 127 / 135 40% 2 29.05.2027 -
Boubacar Kamara Aston Villa Aktiv 159 / 160 40% 3 29.05.2027 -
Saša Lukić Ipswich Town Aktiv 136 / 137 40% 3 28.05.2027 -
Sven Botman Newcastle United Aktiv 162 / 158 40% 3 28.05.2027 -
Yehor Yarmoliuk Brentford Aktiv 155 / 153 40% 2 28.05.2027 -
Marezi Portsmouth Aktiv 121 / 126 40% 5 27.05.2027 -
Dom Ballard Leyton Orient Aktiv 128 / 127 40% 3 27.05.2027 -
Mateo Pellegrino Fiorentina Aktiv 132 / 144 40% 1 27.05.2027 -
Tyler Adams Bournemouth Aktiv 160 / 147 40% 2 26.05.2027 -
Ousmane Diomande Nottingham Forest Aktiv 158 / 153 40% 1 26.05.2027 -
Óscar Mingueza Crystal Palace Aktiv 144 / 147 40% 1 26.05.2027 -
Callum Doyle Wrexham Aktiv 133 / 137 40% 3 24.05.2027 -
Aune Heggebø West Bromwich Albion Aktiv 126 / 129 40% 2 24.05.2027 -
Kenan Yıldız Juventus Aktiv 166 / 162 40% 1 24.05.2027 Mehr Infos nötig
Mees Rijks Bristol Rovers Aktiv 116 / 107 40% 1 24.05.2027 -
Richard Koné Queens Park Rangers Aktiv 118 / 124 40% 2 22.05.2027 -
Georginio Rutter Brighton Aktiv 141 / 146 40% 3 22.05.2027 -
Dango Ouattara Brentford Aktiv 149 / 147 40% 1 22.05.2027 -
Yousef Salech Cardiff City Aktiv 121 / 123 40% 3 20.05.2027 -
Morgan Whittaker Middlesbrough Aktiv 141 / 134 40% 3 20.05.2027 -
Kyle Walker-Peters West Ham United Aktiv 140 / 136 40% 2 19.05.2027 -
Curtis Jones Inter Aktiv 161 / 155 40% 2 19.05.2027 -
Imrân Louza Watford Aktiv 132 / 133 40% 1 19.05.2027 -
Shea Charles Southampton Aktiv 140 / 135 40% 3 18.05.2027 -
Alessandro Buongiorno Sassuolo Aktiv 163 / 155 40% 2 18.05.2027 -
Tyreece Campbell Charlton Athletic Aktiv 119 / 123 40% 1 16.05.2027 -
Thiago Brentford Aktiv 149 / 147 40% 1 16.05.2027 -
Tom Cannon Sheffield United Aktiv 126 / 132 40% 1 16.05.2027 -
Adrien Truffert Bournemouth Aktiv 158 / 150 40% 3 13.05.2027 -
Pedro Porro Tottenham Aktiv 152 / 143 40% 1 13.05.2027 -
Assane Diao Lazio Aktiv 144 / 151 40% 1 12.05.2027 -
Nicolas Jackson Aston Villa Aktiv 149 / 143 40% 1 12.05.2027 -
Quinten Timber Crystal Palace Aktiv 158 / 146 40% 2 11.05.2027 -
Benjamin White Arsenal Aktiv 165 / 156 40% 2 10.05.2027 -
Adam Wharton Crystal Palace Aktiv 156 / 159 40% 3 09.05.2027 -
Bojan Radulović Huddersfield Town Aktiv 108 / 110 40% 1 09.05.2027 -
Nathan Collins Brentford Aktiv 144 / 150 40% 1 09.05.2027 -
Japhet Tanganga Sheffield United Aktiv 139 / 129 40% 1 06.05.2027 -
Anton Stach Leeds United Aktiv 147 / 144 40% 1 06.05.2027 -
Igor Burnley Aktiv 138 / 137 40% 2 05.05.2027 -
Dávid Strelec Middlesbrough Aktiv 142 / 132 40% 1 02.05.2027 -
Andrea Pinamonti Lazio Aktiv 148 / 141 40% 1 02.05.2027 -
Luis Vázquez Birmingham Aktiv 132 / 130 40% 2 30.04.2027 -
Gonçalo Ramos AC Milan Aktiv 152 / 154 40% 3 30.04.2027 -
Chris Mepham West Bromwich Albion Aktiv 134 / 132 40% 1 28.04.2027 -
Welington Southampton Aktiv 130 / 129 40% 4 24.04.2027 -
Rodrigo Pinheiro Famalicao Aktiv 128 / 132 40% 1 24.04.2027 -
Jan Paul van Hecke Tottenham Aktiv 152 / 159 40% 1 21.04.2027 -
Iván Fresneda Sporting CP Aktiv 148 / 146 40% 2 19.04.2027 -
Hwang In-Beom Porto Aktiv 138 / 144 40% 1 19.04.2027 -
Ethan Galbraith Swansea City Aktiv 131 / 130 40% 2 17.04.2027 -
Figueiredo Alverca Aktiv 134 / 129 40% 4 15.04.2027 -
Vinícius Lopes Santa Clara Aktiv 123 / 116 40% 4 15.04.2027 -
Henrique Araújo Casa Pia Aktiv 117 / 122 40% 2 13.04.2027 -
Lucas Duarte Felgueiras Aktiv 102 / 100 40% 1 13.04.2027 -
Noah Sadiki Sunderland Aktiv 137 / 152 40% 1 12.04.2027 -
João Simões Sporting CP Aktiv 125 / 136 40% 1 12.04.2027 -
Francisco Moura Lusitânia Lourosa Aktiv 133 / 138 40% 2 11.04.2027 -
Harry Clarke Preston Aktiv 127 / 130 40% 2 11.04.2027 -
Tomás Araújo Benfica Aktiv 148 / 150 40% 1 08.04.2027 -
Alberto Costa Porto Aktiv 139 / 142 40% 2 07.04.2027 -
Dinis Pinto Moreirense Aktiv 122 / 129 40% 1 06.04.2027 -
Pablo Rosario Porto Aktiv 146 / 139 40% 1 06.04.2027 -
Anel Ahmedhodžić Burnley Aktiv 128 / 136 40% 2 03.04.2027 -
Tyrell Malacia Monaco Aktiv 142 / 136 40% 1 02.04.2027 -
Luís Esteves Atlas Aktiv 126 / 131 40% 1 01.04.2027 -
Pau Víctor AVS Aktiv 146 / 141 40% 3 29.03.2027 -
Kwame Opoku Asante Kotoko Aktiv 101 / 96 40% 2 29.03.2027 -
Dylan Nandín Arouca Aktiv 119 / 116 40% 2 28.03.2027 -
Bright Arrey-Mbi Braga Aktiv 128 / 133 40% 2 26.03.2027 -
Zeno Debast Sporting CP Aktiv 135 / 146 40% 1 26.03.2027 -
Jordan Holsgrove Estoril Praia Aktiv 138 / 130 40% 1 26.03.2027 -
Gustavo Silva Vitoria Guimaraes Aktiv 128 / 120 40% 3 22.03.2027 -
Gabriel Veron Porto Aktiv 133 / 131 40% 3 21.03.2027 -
Gerardo Arteaga Monterrey Aktiv 131 / 134 40% 1 19.03.2027 -
Razvan Balasa Crvena Zvezda Aktiv 141 / 149 40% 2 18.03.2027 -
Tyrese Campbell Sheffield United Aktiv 131 / 121 40% 1 18.03.2027 -
Fally Mayulu Arouca Aktiv 108 / 112 40% 1 09.03.2027 -
Pablo Ruan Nacional Aktiv 113 / 109 40% 1 05.03.2027 -
Miguel Falé Pacos de Ferreira Aktiv 103 / 103 40% 1 28.02.2027 -
Ozziel Herrera Tigres Aktiv 128 / 126 40% 1 12.02.2027 -
Jalen Blesa Rio Ave Aktiv 114 / 111 40% 1 21.11.2026 -
Facundo Colidio Vasco da Gama Aktiv 125 / 122 40% 1 21.11.2026 -
Dawda Camara Alverca Aktiv 114 / 115 40% 1 13.11.2026 -
Ramiro Ruiz Rodríguez Atlético Tucumán Aktiv 122 / 117 40% 1 30.10.2026 -
André Lacximicant Estoril Praia Aktiv 112 / 119 40% 2 14.10.2026 -
Alexis Cuello San Lorenzo Aktiv 127 / 127 40% 2 14.10.2026 -
Rodrigo Castillo Fluminense Aktiv 134 / 132 40% 1 14.10.2026 -
Yanis Begraoui Estoril Praia Aktiv 135 / 133 40% 1 17.09.2026 -
Vitinho Internacional Aktiv 127 / 124 40% 1 08.09.2026 -
Martín Tejón Maritimo Aktiv 120 / 114 40% 1 08.09.2026 -
Leandro Barreiro Benfica Aktiv 131 / 140 40% 1 03.08.2026 -
Heorhii Sudakov Benfica Aktiv 138 / 149 40% 1 03.08.2026 -
Tony Strata Vitoria Guimaraes Aktiv 118 / 133 40% 1 03.08.2026 -
Diogo Dalot Manchester United Aktiv 149 / 136 40% 1 01.08.2026 -
Dodi Lukébakio Benfica Aktiv 140 / 140 40% 1 01.08.2026 -